Аэропорт: Симферополь. Симферополь

ICAO: URFF

METAR:
2020-08-12 06:30:00
URFF 120630Z 22002MPS 150V290 CAVOK 26/15 Q1013 R01/090095 NOSIG
METAR:
2020-08-12 04:50:00
TAF URFF 120450Z 1206/1306 20003MPS 9999 SCT030CB TX30/1212Z TN18/1300Z FM120800 30003MPS 9999 BKN030CB TEMPO 1209/1218 VRB13MPS -TSRA FM122100 25003MPS 6000 FEW004 SCT030CB